sensor_id;sensor_type;location;lat;lon;timestamp;temperature;humidity
4687;DHT22;2357;47.316;-1.348;2022-12-07T00:01:34;6.70;99.90
4687;DHT22;2357;47.316;-1.348;2022-12-07T00:04:02;6.60;99.90
4687;DHT22;2357;47.316;-1.348;2022-12-07T00:06:36;6.70;99.90
4687;DHT22;2357;47.316;-1.348;2022-12-07T00:09:04;6.70;99.90
4687;DHT22;2357;47.316;-1.348;2022-12-07T00:11:29;6.70;99.90
4687;DHT22;2357;47.316;-1.348;2022-12-07T00:13:57;6.70;99.90
4687;DHT22;2357;47.316;-1.348;2022-12-07T00:16:27;6.70;99.90
4687;DHT22;2357;47.316;-1.348;2022-12-07T00:18:53;6.70;99.90
4687;DHT22;2357;47.316;-1.348;2022-12-07T00:21:24;6.60;99.90
4687;DHT22;2357;47.316;-1.348;2022-12-07T00:23:52;6.60;99.90
4687;DHT22;2357;47.316;-1.348;2022-12-07T00:26:20;6.60;99.90
4687;DHT22;2357;47.316;-1.348;2022-12-07T00:28:47;6.70;99.90
4687;DHT22;2357;47.316;-1.348;2022-12-07T00:31:15;6.60;99.90
4687;DHT22;2357;47.316;-1.348;2022-12-07T00:33:41;6.60;99.90
4687;DHT22;2357;47.316;-1.348;2022-12-07T00:36:10;6.70;99.90
4687;DHT22;2357;47.316;-1.348;2022-12-07T00:38:38;6.60;99.90
4687;DHT22;2357;47.316;-1.348;2022-12-07T00:41:16;6.60;99.90
4687;DHT22;2357;47.316;-1.348;2022-12-07T00:43:43;6.60;99.90
4687;DHT22;2357;47.316;-1.348;2022-12-07T00:46:09;6.60;99.90
4687;DHT22;2357;47.316;-1.348;2022-12-07T00:48:35;6.70;99.90
4687;DHT22;2357;47.316;-1.348;2022-12-07T00:51:01;6.70;99.90
4687;DHT22;2357;47.316;-1.348;2022-12-07T00:53:28;6.70;99.90
4687;DHT22;2357;47.316;-1.348;2022-12-07T00:55:54;6.60;99.90
4687;DHT22;2357;47.316;-1.348;2022-12-07T00:58:20;6.60;99.90
4687;DHT22;2357;47.316;-1.348;2022-12-07T01:00:46;6.60;99.90
4687;DHT22;2357;47.316;-1.348;2022-12-07T01:03:14;6.50;99.90
4687;DHT22;2357;47.316;-1.348;2022-12-07T01:05:40;6.60;99.90
4687;DHT22;2357;47.316;-1.348;2022-12-07T01:08:13;6.50;99.90
4687;DHT22;2357;47.316;-1.348;2022-12-07T01:10:39;6.60;99.90
4687;DHT22;2357;47.316;-1.348;2022-12-07T01:13:04;6.60;99.90
4687;DHT22;2357;47.316;-1.348;2022-12-07T01:15:30;6.50;99.90
4687;DHT22;2357;47.316;-1.348;2022-12-07T01:17:56;6.50;99.90
4687;DHT22;2357;47.316;-1.348;2022-12-07T01:20:22;6.50;99.90
4687;DHT22;2357;47.316;-1.348;2022-12-07T01:22:47;6.50;99.90
4687;DHT22;2357;47.316;-1.348;2022-12-07T01:25:13;6.50;99.90
4687;DHT22;2357;47.316;-1.348;2022-12-07T01:27:39;6.50;99.90
4687;DHT22;2357;47.316;-1.348;2022-12-07T01:30:06;6.50;99.90
4687;DHT22;2357;47.316;-1.348;2022-12-07T01:32:33;6.50;99.90
4687;DHT22;2357;47.316;-1.348;2022-12-07T01:34:58;6.60;99.90
4687;DHT22;2357;47.316;-1.348;2022-12-07T01:37:24;6.60;99.90
4687;DHT22;2357;47.316;-1.348;2022-12-07T01:39:51;6.60;99.90
4687;DHT22;2357;47.316;-1.348;2022-12-07T01:42:17;6.60;99.90
4687;DHT22;2357;47.316;-1.348;2022-12-07T01:47:45;6.60;99.90
4687;DHT22;2357;47.316;-1.348;2022-12-07T01:50:12;6.70;99.90
4687;DHT22;2357;47.316;-1.348;2022-12-07T01:52:40;6.70;99.90
4687;DHT22;2357;47.316;-1.348;2022-12-07T01:55:12;6.70;99.90
4687;DHT22;2357;47.316;-1.348;2022-12-07T01:57:42;6.70;99.90
4687;DHT22;2357;47.316;-1.348;2022-12-07T02:00:10;6.70;99.90
4687;DHT22;2357;47.316;-1.348;2022-12-07T02:02:47;6.60;99.90
4687;DHT22;2357;47.316;-1.348;2022-12-07T02:05:13;6.60;99.90
4687;DHT22;2357;47.316;-1.348;2022-12-07T02:07:40;6.60;99.90
4687;DHT22;2357;47.316;-1.348;2022-12-07T02:10:20;6.70;99.90
4687;DHT22;2357;47.316;-1.348;2022-12-07T02:12:50;6.70;99.90
4687;DHT22;2357;47.316;-1.348;2022-12-07T02:15:18;6.60;99.90
4687;DHT22;2357;47.316;-1.348;2022-12-07T02:17:58;6.60;99.90
4687;DHT22;2357;47.316;-1.348;2022-12-07T02:20:33;6.60;99.90
4687;DHT22;2357;47.316;-1.348;2022-12-07T02:31:31;6.60;99.90
4687;DHT22;2357;47.316;-1.348;2022-12-07T02:34:09;6.70;99.90
4687;DHT22;2357;47.316;-1.348;2022-12-07T02:36:45;6.70;99.90
4687;DHT22;2357;47.316;-1.348;2022-12-07T02:39:18;6.70;99.90
4687;DHT22;2357;47.316;-1.348;2022-12-07T02:41:53;6.70;99.90
4687;DHT22;2357;47.316;-1.348;2022-12-07T02:44:24;6.70;99.90
4687;DHT22;2357;47.316;-1.348;2022-12-07T02:46:56;6.70;99.90
4687;DHT22;2357;47.316;-1.348;2022-12-07T02:49:24;6.70;99.90
4687;DHT22;2357;47.316;-1.348;2022-12-07T02:51:52;6.60;99.90
4687;DHT22;2357;47.316;-1.348;2022-12-07T02:54:19;6.60;99.90
4687;DHT22;2357;47.316;-1.348;2022-12-07T02:57:40;6.60;99.90
4687;DHT22;2357;47.316;-1.348;2022-12-07T03:00:18;6.70;99.90
4687;DHT22;2357;47.316;-1.348;2022-12-07T03:07:51;6.60;99.90
4687;DHT22;2357;47.316;-1.348;2022-12-07T03:15:47;6.50;99.90
4687;DHT22;2357;47.316;-1.348;2022-12-07T03:18:17;6.60;99.90
4687;DHT22;2357;47.316;-1.348;2022-12-07T03:20:45;6.60;99.90
4687;DHT22;2357;47.316;-1.348;2022-12-07T03:23:12;6.60;99.90
4687;DHT22;2357;47.316;-1.348;2022-12-07T03:25:44;6.60;99.90
4687;DHT22;2357;47.316;-1.348;2022-12-07T03:28:12;6.60;99.90
4687;DHT22;2357;47.316;-1.348;2022-12-07T03:33:44;6.60;99.90
4687;DHT22;2357;47.316;-1.348;2022-12-07T03:36:27;6.60;99.90
4687;DHT22;2357;47.316;-1.348;2022-12-07T03:39:08;6.70;99.90
4687;DHT22;2357;47.316;-1.348;2022-12-07T03:41:38;6.70;99.90
4687;DHT22;2357;47.316;-1.348;2022-12-07T03:44:05;6.70;99.90
4687;DHT22;2357;47.316;-1.348;2022-12-07T03:46:58;6.70;99.90
4687;DHT22;2357;47.316;-1.348;2022-12-07T03:49:42;6.50;99.90
4687;DHT22;2357;47.316;-1.348;2022-12-07T03:55:15;6.50;99.90
4687;DHT22;2357;47.316;-1.348;2022-12-07T03:57:34;6.50;99.90
4687;DHT22;2357;47.316;-1.348;2022-12-07T04:00:01;6.60;99.90
4687;DHT22;2357;47.316;-1.348;2022-12-07T04:02:28;6.50;99.90
4687;DHT22;2357;47.316;-1.348;2022-12-07T04:04:55;6.50;99.90
4687;DHT22;2357;47.316;-1.348;2022-12-07T04:07:21;6.50;99.90
4687;DHT22;2357;47.316;-1.348;2022-12-07T04:09:47;6.50;99.90
4687;DHT22;2357;47.316;-1.348;2022-12-07T04:12:13;6.50;99.90
4687;DHT22;2357;47.316;-1.348;2022-12-07T04:14:39;6.50;99.90
4687;DHT22;2357;47.316;-1.348;2022-12-07T04:17:04;6.40;99.90
4687;DHT22;2357;47.316;-1.348;2022-12-07T04:19:32;6.30;99.90
4687;DHT22;2357;47.316;-1.348;2022-12-07T04:21:59;6.40;99.90
4687;DHT22;2357;47.316;-1.348;2022-12-07T04:24:25;6.40;99.90
4687;DHT22;2357;47.316;-1.348;2022-12-07T04:26:51;6.40;99.90
4687;DHT22;2357;47.316;-1.348;2022-12-07T04:29:18;6.50;99.90
4687;DHT22;2357;47.316;-1.348;2022-12-07T04:31:44;6.40;99.90
4687;DHT22;2357;47.316;-1.348;2022-12-07T04:34:10;6.30;99.90
4687;DHT22;2357;47.316;-1.348;2022-12-07T04:36:37;6.30;99.90
4687;DHT22;2357;47.316;-1.348;2022-12-07T04:39:04;6.30;99.90
4687;DHT22;2357;47.316;-1.348;2022-12-07T04:41:30;6.30;99.90
4687;DHT22;2357;47.316;-1.348;2022-12-07T04:43:57;6.40;99.90
4687;DHT22;2357;47.316;-1.348;2022-12-07T04:46:24;6.20;99.90
4687;DHT22;2357;47.316;-1.348;2022-12-07T04:48:51;6.20;99.90
4687;DHT22;2357;47.316;-1.348;2022-12-07T04:51:20;6.30;99.90
4687;DHT22;2357;47.316;-1.348;2022-12-07T04:53:46;6.20;99.90
4687;DHT22;2357;47.316;-1.348;2022-12-07T04:56:12;6.20;99.90
4687;DHT22;2357;47.316;-1.348;2022-12-07T04:58:38;6.20;99.90
4687;DHT22;2357;47.316;-1.348;2022-12-07T05:01:04;6.30;99.90
4687;DHT22;2357;47.316;-1.348;2022-12-07T05:03:29;6.30;99.90
4687;DHT22;2357;47.316;-1.348;2022-12-07T05:05:55;6.20;99.90
4687;DHT22;2357;47.316;-1.348;2022-12-07T05:08:20;6.10;99.90
4687;DHT22;2357;47.316;-1.348;2022-12-07T05:10:48;6.10;99.90
4687;DHT22;2357;47.316;-1.348;2022-12-07T05:13:14;5.90;99.90
4687;DHT22;2357;47.316;-1.348;2022-12-07T05:15:40;5.90;99.90
4687;DHT22;2357;47.316;-1.348;2022-12-07T05:18:06;6.00;99.90
4687;DHT22;2357;47.316;-1.348;2022-12-07T05:20:31;6.00;99.90
4687;DHT22;2357;47.316;-1.348;2022-12-07T05:22:57;5.90;99.90
4687;DHT22;2357;47.316;-1.348;2022-12-07T05:25:24;5.70;99.90
4687;DHT22;2357;47.316;-1.348;2022-12-07T05:27:49;5.70;99.90
4687;DHT22;2357;47.316;-1.348;2022-12-07T05:30:15;5.40;99.90
4687;DHT22;2357;47.316;-1.348;2022-12-07T05:32:41;5.50;99.90
4687;DHT22;2357;47.316;-1.348;2022-12-07T05:35:07;5.50;99.90
4687;DHT22;2357;47.316;-1.348;2022-12-07T05:37:32;5.50;99.90
4687;DHT22;2357;47.316;-1.348;2022-12-07T05:39:58;5.30;99.90
4687;DHT22;2357;47.316;-1.348;2022-12-07T05:42:24;5.30;99.90
4687;DHT22;2357;47.316;-1.348;2022-12-07T05:44:49;5.40;99.90
4687;DHT22;2357;47.316;-1.348;2022-12-07T05:47:15;5.40;99.90
4687;DHT22;2357;47.316;-1.348;2022-12-07T05:49:41;5.20;99.90
4687;DHT22;2357;47.316;-1.348;2022-12-07T05:52:07;5.10;99.90
4687;DHT22;2357;47.316;-1.348;2022-12-07T05:54:33;5.10;99.90
4687;DHT22;2357;47.316;-1.348;2022-12-07T05:56:59;5.20;99.90
4687;DHT22;2357;47.316;-1.348;2022-12-07T05:59:24;5.10;99.90
4687;DHT22;2357;47.316;-1.348;2022-12-07T06:04:20;5.10;99.90
4687;DHT22;2357;47.316;-1.348;2022-12-07T06:06:46;5.10;99.90
4687;DHT22;2357;47.316;-1.348;2022-12-07T06:09:12;5.10;99.90
4687;DHT22;2357;47.316;-1.348;2022-12-07T06:11:38;5.10;99.90
4687;DHT22;2357;47.316;-1.348;2022-12-07T06:14:23;5.00;99.90
4687;DHT22;2357;47.316;-1.348;2022-12-07T06:16:48;5.00;99.90
4687;DHT22;2357;47.316;-1.348;2022-12-07T06:19:14;5.10;99.90
4687;DHT22;2357;47.316;-1.348;2022-12-07T06:21:40;5.00;99.90
4687;DHT22;2357;47.316;-1.348;2022-12-07T06:24:05;5.00;99.90
4687;DHT22;2357;47.316;-1.348;2022-12-07T06:26:31;4.90;99.90
4687;DHT22;2357;47.316;-1.348;2022-12-07T06:28:57;5.10;99.90
4687;DHT22;2357;47.316;-1.348;2022-12-07T06:31:22;5.10;99.90
4687;DHT22;2357;47.316;-1.348;2022-12-07T06:33:48;5.00;99.90
4687;DHT22;2357;47.316;-1.348;2022-12-07T06:36:14;4.90;99.90
4687;DHT22;2357;47.316;-1.348;2022-12-07T06:38:39;4.90;99.90
4687;DHT22;2357;47.316;-1.348;2022-12-07T06:41:05;5.00;99.90
4687;DHT22;2357;47.316;-1.348;2022-12-07T06:43:32;5.00;99.90
4687;DHT22;2357;47.316;-1.348;2022-12-07T06:45:58;5.00;99.90
4687;DHT22;2357;47.316;-1.348;2022-12-07T06:48:23;5.00;99.90
4687;DHT22;2357;47.316;-1.348;2022-12-07T06:50:49;5.00;99.90
4687;DHT22;2357;47.316;-1.348;2022-12-07T06:53:15;5.10;99.90
4687;DHT22;2357;47.316;-1.348;2022-12-07T06:55:41;5.10;99.90
4687;DHT22;2357;47.316;-1.348;2022-12-07T06:58:07;4.90;99.90
4687;DHT22;2357;47.316;-1.348;2022-12-07T07:00:33;4.90;99.90
4687;DHT22;2357;47.316;-1.348;2022-12-07T07:03:00;5.00;99.90
4687;DHT22;2357;47.316;-1.348;2022-12-07T07:05:26;5.00;99.90
4687;DHT22;2357;47.316;-1.348;2022-12-07T07:07:52;5.10;99.90
4687;DHT22;2357;47.316;-1.348;2022-12-07T07:10:17;5.00;99.90
4687;DHT22;2357;47.316;-1.348;2022-12-07T07:12:43;5.00;99.90
4687;DHT22;2357;47.316;-1.348;2022-12-07T07:15:09;5.00;99.90
4687;DHT22;2357;47.316;-1.348;2022-12-07T07:17:35;4.90;99.90
4687;DHT22;2357;47.316;-1.348;2022-12-07T07:20:00;5.00;99.90
4687;DHT22;2357;47.316;-1.348;2022-12-07T07:22:26;5.00;99.90
4687;DHT22;2357;47.316;-1.348;2022-12-07T07:24:52;5.00;99.90
4687;DHT22;2357;47.316;-1.348;2022-12-07T07:27:17;5.00;99.90
4687;DHT22;2357;47.316;-1.348;2022-12-07T07:29:43;4.90;99.90
4687;DHT22;2357;47.316;-1.348;2022-12-07T07:32:09;4.90;99.90
4687;DHT22;2357;47.316;-1.348;2022-12-07T07:34:34;4.80;99.90
4687;DHT22;2357;47.316;-1.348;2022-12-07T07:37:00;4.80;99.90
4687;DHT22;2357;47.316;-1.348;2022-12-07T07:39:26;4.90;99.90
4687;DHT22;2357;47.316;-1.348;2022-12-07T07:41:51;4.80;99.90
4687;DHT22;2357;47.316;-1.348;2022-12-07T07:44:17;4.80;99.90
4687;DHT22;2357;47.316;-1.348;2022-12-07T07:46:42;4.90;99.90
4687;DHT22;2357;47.316;-1.348;2022-12-07T07:49:09;4.80;99.90
4687;DHT22;2357;47.316;-1.348;2022-12-07T07:51:36;4.80;99.90
4687;DHT22;2357;47.316;-1.348;2022-12-07T07:54:01;4.80;99.90
4687;DHT22;2357;47.316;-1.348;2022-12-07T07:56:27;4.90;99.90
4687;DHT22;2357;47.316;-1.348;2022-12-07T07:58:53;4.90;99.90
4687;DHT22;2357;47.316;-1.348;2022-12-07T08:01:18;5.00;99.90
4687;DHT22;2357;47.316;-1.348;2022-12-07T08:03:46;5.00;99.90
4687;DHT22;2357;47.316;-1.348;2022-12-07T08:06:12;5.00;99.90
4687;DHT22;2357;47.316;-1.348;2022-12-07T08:08:37;5.00;99.90
4687;DHT22;2357;47.316;-1.348;2022-12-07T08:11:09;4.90;99.90
4687;DHT22;2357;47.316;-1.348;2022-12-07T08:13:36;5.00;99.90
4687;DHT22;2357;47.316;-1.348;2022-12-07T08:16:09;5.00;99.90
4687;DHT22;2357;47.316;-1.348;2022-12-07T08:18:39;5.10;99.90
4687;DHT22;2357;47.316;-1.348;2022-12-07T08:21:06;5.00;99.90
4687;DHT22;2357;47.316;-1.348;2022-12-07T08:23:32;5.00;99.90
4687;DHT22;2357;47.316;-1.348;2022-12-07T08:26:03;5.00;99.90
4687;DHT22;2357;47.316;-1.348;2022-12-07T08:28:30;5.00;99.90
4687;DHT22;2357;47.316;-1.348;2022-12-07T08:31:16;5.00;99.90
4687;DHT22;2357;47.316;-1.348;2022-12-07T08:33:43;5.00;99.90
4687;DHT22;2357;47.316;-1.348;2022-12-07T08:36:11;5.10;99.90
4687;DHT22;2357;47.316;-1.348;2022-12-07T08:38:38;5.10;99.90
4687;DHT22;2357;47.316;-1.348;2022-12-07T08:41:05;5.10;99.90
4687;DHT22;2357;47.316;-1.348;2022-12-07T08:43:30;5.00;99.90
4687;DHT22;2357;47.316;-1.348;2022-12-07T08:48:51;5.00;99.90
4687;DHT22;2357;47.316;-1.348;2022-12-07T08:51:19;4.90;99.90
4687;DHT22;2357;47.316;-1.348;2022-12-07T08:53:45;5.00;99.90
4687;DHT22;2357;47.316;-1.348;2022-12-07T08:56:11;5.10;99.90
4687;DHT22;2357;47.316;-1.348;2022-12-07T08:58:38;5.20;99.90
4687;DHT22;2357;47.316;-1.348;2022-12-07T09:01:04;5.10;99.90
4687;DHT22;2357;47.316;-1.348;2022-12-07T09:03:30;5.10;99.90
4687;DHT22;2357;47.316;-1.348;2022-12-07T09:05:57;5.00;99.90
4687;DHT22;2357;47.316;-1.348;2022-12-07T09:08:28;5.00;99.90
4687;DHT22;2357;47.316;-1.348;2022-12-07T09:10:55;5.10;99.90
4687;DHT22;2357;47.316;-1.348;2022-12-07T09:13:20;5.00;99.90
4687;DHT22;2357;47.316;-1.348;2022-12-07T09:15:46;5.00;99.90
4687;DHT22;2357;47.316;-1.348;2022-12-07T09:18:12;5.00;99.90
4687;DHT22;2357;47.316;-1.348;2022-12-07T09:20:37;5.10;99.90
4687;DHT22;2357;47.316;-1.348;2022-12-07T09:23:06;5.10;99.90
4687;DHT22;2357;47.316;-1.348;2022-12-07T09:25:32;5.10;99.90
4687;DHT22;2357;47.316;-1.348;2022-12-07T09:27:58;5.10;99.90
4687;DHT22;2357;47.316;-1.348;2022-12-07T09:30:25;5.10;99.90
4687;DHT22;2357;47.316;-1.348;2022-12-07T09:32:53;4.90;99.90
4687;DHT22;2357;47.316;-1.348;2022-12-07T09:35:19;5.00;99.90
4687;DHT22;2357;47.316;-1.348;2022-12-07T09:37:45;4.90;99.90
4687;DHT22;2357;47.316;-1.348;2022-12-07T09:40:11;5.00;99.90
4687;DHT22;2357;47.316;-1.348;2022-12-07T09:42:39;5.10;99.90
4687;DHT22;2357;47.316;-1.348;2022-12-07T09:45:13;5.10;99.90
4687;DHT22;2357;47.316;-1.348;2022-12-07T09:47:39;5.20;99.90
4687;DHT22;2357;47.316;-1.348;2022-12-07T09:50:12;5.30;99.90
4687;DHT22;2357;47.316;-1.348;2022-12-07T09:52:38;5.40;99.90
4687;DHT22;2357;47.316;-1.348;2022-12-07T09:55:13;5.30;99.90
4687;DHT22;2357;47.316;-1.348;2022-12-07T09:57:39;5.50;99.90
4687;DHT22;2357;47.316;-1.348;2022-12-07T10:00:32;5.30;99.90
4687;DHT22;2357;47.316;-1.348;2022-12-07T10:03:01;5.40;99.90
4687;DHT22;2357;47.316;-1.348;2022-12-07T10:05:42;5.30;99.90
4687;DHT22;2357;47.316;-1.348;2022-12-07T10:08:13;5.30;99.90
4687;DHT22;2357;47.316;-1.348;2022-12-07T10:10:39;5.30;99.90
4687;DHT22;2357;47.316;-1.348;2022-12-07T10:13:14;5.30;99.90
4687;DHT22;2357;47.316;-1.348;2022-12-07T10:15:52;5.40;99.90
4687;DHT22;2357;47.316;-1.348;2022-12-07T10:18:31;5.30;99.90
4687;DHT22;2357;47.316;-1.348;2022-12-07T10:23:36;5.40;99.90
4687;DHT22;2357;47.316;-1.348;2022-12-07T10:26:30;5.50;99.90
4687;DHT22;2357;47.316;-1.348;2022-12-07T10:28:59;5.70;99.90
4687;DHT22;2357;47.316;-1.348;2022-12-07T10:31:25;5.80;99.90
4687;DHT22;2357;47.316;-1.348;2022-12-07T10:33:59;5.90;99.90
4687;DHT22;2357;47.316;-1.348;2022-12-07T10:36:37;5.70;99.90
4687;DHT22;2357;47.316;-1.348;2022-12-07T10:39:23;5.70;99.90
4687;DHT22;2357;47.316;-1.348;2022-12-07T10:41:56;5.80;99.90
4687;DHT22;2357;47.316;-1.348;2022-12-07T10:44:25;5.70;99.90
4687;DHT22;2357;47.316;-1.348;2022-12-07T10:50:45;5.90;99.90
4687;DHT22;2357;47.316;-1.348;2022-12-07T10:53:14;5.90;99.90
4687;DHT22;2357;47.316;-1.348;2022-12-07T11:06:54;6.00;99.90
4687;DHT22;2357;47.316;-1.348;2022-12-07T11:14:41;6.20;99.90
4687;DHT22;2357;47.316;-1.348;2022-12-07T11:20:33;6.30;99.90
4687;DHT22;2357;47.316;-1.348;2022-12-07T11:26:19;6.40;99.90
4687;DHT22;2357;47.316;-1.348;2022-12-07T11:29:07;6.50;99.90
4687;DHT22;2357;47.316;-1.348;2022-12-07T11:34:39;6.50;99.90
4687;DHT22;2357;47.316;-1.348;2022-12-07T11:37:10;6.60;99.90
4687;DHT22;2357;47.316;-1.348;2022-12-07T11:39:55;6.70;99.90
4687;DHT22;2357;47.316;-1.348;2022-12-07T11:42:26;6.70;99.90
4687;DHT22;2357;47.316;-1.348;2022-12-07T11:44:56;6.70;99.90
4687;DHT22;2357;47.316;-1.348;2022-12-07T11:47:41;6.70;99.90
4687;DHT22;2357;47.316;-1.348;2022-12-07T11:55:56;6.90;99.90
4687;DHT22;2357;47.316;-1.348;2022-12-07T12:03:41;7.20;99.90
4687;DHT22;2357;47.316;-1.348;2022-12-07T12:06:09;7.20;99.90
4687;DHT22;2357;47.316;-1.348;2022-12-07T12:15:08;7.40;99.90
4687;DHT22;2357;47.316;-1.348;2022-12-07T12:25:34;7.60;99.90
4687;DHT22;2357;47.316;-1.348;2022-12-07T12:28:01;7.70;99.90
4687;DHT22;2357;47.316;-1.348;2022-12-07T12:30:40;7.70;99.90
4687;DHT22;2357;47.316;-1.348;2022-12-07T12:35:40;7.80;99.90
4687;DHT22;2357;47.316;-1.348;2022-12-07T12:38:47;7.90;99.90
4687;DHT22;2357;47.316;-1.348;2022-12-07T12:43:58;8.00;99.90
4687;DHT22;2357;47.316;-1.348;2022-12-07T12:51:53;8.30;99.90
4687;DHT22;2357;47.316;-1.348;2022-12-07T12:54:22;8.40;99.90
4687;DHT22;2357;47.316;-1.348;2022-12-07T12:59:34;8.60;99.90
4687;DHT22;2357;47.316;-1.348;2022-12-07T13:04:56;8.90;99.90
4687;DHT22;2357;47.316;-1.348;2022-12-07T13:16:35;10.20;99.90
4687;DHT22;2357;47.316;-1.348;2022-12-07T13:18:41;10.90;99.90
4687;DHT22;2357;47.316;-1.348;2022-12-07T13:36:51;13.90;99.90
4687;DHT22;2357;47.316;-1.348;2022-12-07T13:41:45;15.10;99.90
4687;DHT22;2357;47.316;-1.348;2022-12-07T13:44:15;15.40;99.90
4687;DHT22;2357;47.316;-1.348;2022-12-07T13:46:52;15.60;99.90
4687;DHT22;2357;47.316;-1.348;2022-12-07T13:49:26;15.90;99.90
4687;DHT22;2357;47.316;-1.348;2022-12-07T13:51:52;16.30;99.90
4687;DHT22;2357;47.316;-1.348;2022-12-07T13:54:18;16.50;99.90
4687;DHT22;2357;47.316;-1.348;2022-12-07T13:56:49;16.80;99.90
4687;DHT22;2357;47.316;-1.348;2022-12-07T13:59:21;16.80;99.90
4687;DHT22;2357;47.316;-1.348;2022-12-07T14:01:49;16.90;99.90
4687;DHT22;2357;47.316;-1.348;2022-12-07T14:06:57;16.80;99.90
4687;DHT22;2357;47.316;-1.348;2022-12-07T14:09:24;17.00;99.90
4687;DHT22;2357;47.316;-1.348;2022-12-07T14:11:53;16.90;99.90
4687;DHT22;2357;47.316;-1.348;2022-12-07T14:14:26;17.00;99.90
4687;DHT22;2357;47.316;-1.348;2022-12-07T14:17:12;17.00;99.90
4687;DHT22;2357;47.316;-1.348;2022-12-07T14:22:17;13.40;99.90
4687;DHT22;2357;47.316;-1.348;2022-12-07T14:24:44;12.20;99.90
4687;DHT22;2357;47.316;-1.348;2022-12-07T14:27:22;10.60;99.90
4687;DHT22;2357;47.316;-1.348;2022-12-07T14:29:51;10.20;99.90
4687;DHT22;2357;47.316;-1.348;2022-12-07T14:32:21;10.10;99.90
4687;DHT22;2357;47.316;-1.348;2022-12-07T14:34:56;9.80;99.90
4687;DHT22;2357;47.316;-1.348;2022-12-07T14:37:23;9.70;99.90
4687;DHT22;2357;47.316;-1.348;2022-12-07T14:39:49;9.60;99.90
4687;DHT22;2357;47.316;-1.348;2022-12-07T14:42:14;9.50;99.90
4687;DHT22;2357;47.316;-1.348;2022-12-07T14:44:40;9.00;99.90
4687;DHT22;2357;47.316;-1.348;2022-12-07T14:47:09;9.00;99.90
4687;DHT22;2357;47.316;-1.348;2022-12-07T14:49:35;9.00;99.90
4687;DHT22;2357;47.316;-1.348;2022-12-07T14:52:01;8.90;99.90
4687;DHT22;2357;47.316;-1.348;2022-12-07T14:54:30;8.80;99.90
4687;DHT22;2357;47.316;-1.348;2022-12-07T14:56:56;8.80;99.90
4687;DHT22;2357;47.316;-1.348;2022-12-07T14:59:23;8.70;99.90
4687;DHT22;2357;47.316;-1.348;2022-12-07T15:01:49;8.60;99.90
4687;DHT22;2357;47.316;-1.348;2022-12-07T15:04:15;8.40;99.90
4687;DHT22;2357;47.316;-1.348;2022-12-07T15:06:40;8.40;99.90
4687;DHT22;2357;47.316;-1.348;2022-12-07T15:09:10;8.20;99.90
4687;DHT22;2357;47.316;-1.348;2022-12-07T15:11:36;8.10;99.90
4687;DHT22;2357;47.316;-1.348;2022-12-07T15:14:02;8.10;99.90
4687;DHT22;2357;47.316;-1.348;2022-12-07T15:16:35;8.10;99.90
4687;DHT22;2357;47.316;-1.348;2022-12-07T15:19:01;8.00;99.90
4687;DHT22;2357;47.316;-1.348;2022-12-07T15:21:26;7.90;99.90
4687;DHT22;2357;47.316;-1.348;2022-12-07T15:23:52;7.90;99.90
4687;DHT22;2357;47.316;-1.348;2022-12-07T15:26:18;7.90;99.90
4687;DHT22;2357;47.316;-1.348;2022-12-07T15:28:44;7.90;99.90
4687;DHT22;2357;47.316;-1.348;2022-12-07T15:31:17;7.70;99.90
4687;DHT22;2357;47.316;-1.348;2022-12-07T15:33:43;7.80;99.90
4687;DHT22;2357;47.316;-1.348;2022-12-07T15:36:19;7.70;99.90
4687;DHT22;2357;47.316;-1.348;2022-12-07T15:38:46;7.70;99.90
4687;DHT22;2357;47.316;-1.348;2022-12-07T15:41:12;7.60;99.90
4687;DHT22;2357;47.316;-1.348;2022-12-07T15:43:38;7.50;99.90
4687;DHT22;2357;47.316;-1.348;2022-12-07T15:46:22;7.50;99.90
4687;DHT22;2357;47.316;-1.348;2022-12-07T15:48:48;7.30;99.90
4687;DHT22;2357;47.316;-1.348;2022-12-07T15:51:13;7.20;99.90
4687;DHT22;2357;47.316;-1.348;2022-12-07T15:53:39;7.30;99.90
4687;DHT22;2357;47.316;-1.348;2022-12-07T15:56:08;7.10;99.90
4687;DHT22;2357;47.316;-1.348;2022-12-07T15:58:34;7.30;99.90
4687;DHT22;2357;47.316;-1.348;2022-12-07T16:01:00;7.10;99.90
4687;DHT22;2357;47.316;-1.348;2022-12-07T16:03:27;7.20;99.90
4687;DHT22;2357;47.316;-1.348;2022-12-07T16:05:52;7.10;99.90
4687;DHT22;2357;47.316;-1.348;2022-12-07T16:08:19;7.10;99.90
4687;DHT22;2357;47.316;-1.348;2022-12-07T16:10:45;6.90;99.90
4687;DHT22;2357;47.316;-1.348;2022-12-07T16:13:11;6.80;99.90
4687;DHT22;2357;47.316;-1.348;2022-12-07T16:15:39;6.80;99.90
4687;DHT22;2357;47.316;-1.348;2022-12-07T16:18:05;6.80;99.90
4687;DHT22;2357;47.316;-1.348;2022-12-07T16:20:30;6.70;99.90
4687;DHT22;2357;47.316;-1.348;2022-12-07T16:22:56;6.70;99.90
4687;DHT22;2357;47.316;-1.348;2022-12-07T16:25:22;6.70;99.90
4687;DHT22;2357;47.316;-1.348;2022-12-07T16:27:47;6.60;99.90
4687;DHT22;2357;47.316;-1.348;2022-12-07T16:30:14;6.50;99.90
4687;DHT22;2357;47.316;-1.348;2022-12-07T16:32:41;6.50;99.90
4687;DHT22;2357;47.316;-1.348;2022-12-07T16:35:08;6.40;99.90
4687;DHT22;2357;47.316;-1.348;2022-12-07T16:37:34;6.20;99.90
4687;DHT22;2357;47.316;-1.348;2022-12-07T16:39:59;6.20;99.90
4687;DHT22;2357;47.316;-1.348;2022-12-07T16:42:25;6.20;99.90
4687;DHT22;2357;47.316;-1.348;2022-12-07T16:44:52;6.10;99.90
4687;DHT22;2357;47.316;-1.348;2022-12-07T16:47:17;6.00;99.90
4687;DHT22;2357;47.316;-1.348;2022-12-07T16:49:43;6.00;99.90
4687;DHT22;2357;47.316;-1.348;2022-12-07T16:52:09;6.00;99.90
4687;DHT22;2357;47.316;-1.348;2022-12-07T16:54:35;6.00;99.90
4687;DHT22;2357;47.316;-1.348;2022-12-07T16:57:01;6.10;99.90
4687;DHT22;2357;47.316;-1.348;2022-12-07T16:59:27;6.00;99.90
4687;DHT22;2357;47.316;-1.348;2022-12-07T17:01:52;6.10;99.90
4687;DHT22;2357;47.316;-1.348;2022-12-07T17:04:18;6.00;99.90
4687;DHT22;2357;47.316;-1.348;2022-12-07T17:06:43;6.10;99.90
4687;DHT22;2357;47.316;-1.348;2022-12-07T17:09:09;6.00;99.90
4687;DHT22;2357;47.316;-1.348;2022-12-07T17:11:37;6.00;99.90
4687;DHT22;2357;47.316;-1.348;2022-12-07T17:14:03;5.90;99.90
4687;DHT22;2357;47.316;-1.348;2022-12-07T17:16:48;5.70;99.90
4687;DHT22;2357;47.316;-1.348;2022-12-07T17:19:15;5.80;99.90
4687;DHT22;2357;47.316;-1.348;2022-12-07T17:21:41;5.70;99.90
4687;DHT22;2357;47.316;-1.348;2022-12-07T17:24:09;5.60;99.90
4687;DHT22;2357;47.316;-1.348;2022-12-07T17:26:35;5.70;99.90
4687;DHT22;2357;47.316;-1.348;2022-12-07T17:29:02;5.70;99.90
4687;DHT22;2357;47.316;-1.348;2022-12-07T17:31:28;5.70;99.90
4687;DHT22;2357;47.316;-1.348;2022-12-07T17:33:54;5.70;99.90
4687;DHT22;2357;47.316;-1.348;2022-12-07T17:36:24;5.70;99.90
4687;DHT22;2357;47.316;-1.348;2022-12-07T17:38:52;5.80;99.90
4687;DHT22;2357;47.316;-1.348;2022-12-07T17:41:22;5.70;99.90
4687;DHT22;2357;47.316;-1.348;2022-12-07T17:44:11;5.70;99.90
4687;DHT22;2357;47.316;-1.348;2022-12-07T17:46:37;5.70;99.90
4687;DHT22;2357;47.316;-1.348;2022-12-07T17:49:03;5.60;99.90
4687;DHT22;2357;47.316;-1.348;2022-12-07T17:51:29;5.70;99.90
4687;DHT22;2357;47.316;-1.348;2022-12-07T17:54:14;5.50;99.90
4687;DHT22;2357;47.316;-1.348;2022-12-07T17:56:40;5.50;99.90
4687;DHT22;2357;47.316;-1.348;2022-12-07T17:59:06;5.40;99.90
4687;DHT22;2357;47.316;-1.348;2022-12-07T18:01:32;5.20;99.90
4687;DHT22;2357;47.316;-1.348;2022-12-07T18:03:58;5.30;99.90
4687;DHT22;2357;47.316;-1.348;2022-12-07T18:06:23;5.20;99.90
4687;DHT22;2357;47.316;-1.348;2022-12-07T18:08:49;5.20;99.90
4687;DHT22;2357;47.316;-1.348;2022-12-07T18:11:15;5.30;99.90
4687;DHT22;2357;47.316;-1.348;2022-12-07T18:13:41;5.30;99.90
4687;DHT22;2357;47.316;-1.348;2022-12-07T18:16:13;5.40;99.90
4687;DHT22;2357;47.316;-1.348;2022-12-07T18:18:40;5.50;99.90
4687;DHT22;2357;47.316;-1.348;2022-12-07T18:21:11;5.50;99.90
4687;DHT22;2357;47.316;-1.348;2022-12-07T18:23:40;5.50;99.90
4687;DHT22;2357;47.316;-1.348;2022-12-07T18:26:06;5.60;99.90
4687;DHT22;2357;47.316;-1.348;2022-12-07T18:28:31;5.60;99.90